sensor_id;sensor_type;location;lat;lon;timestamp;P1;durP1;ratioP1;P2;durP2;ratioP2
3309;SDS011;1667;53.238;10.394;2023-04-25T00:03:33;3.07;;;2.80;;
3309;SDS011;1667;53.238;10.394;2023-04-25T00:08:34;7.00;;;3.80;;
3309;SDS011;1667;53.238;10.394;2023-04-25T00:13:32;5.00;;;3.57;;
3309;SDS011;1667;53.238;10.394;2023-04-25T00:18:31;4.00;;;3.50;;
3309;SDS011;1667;53.238;10.394;2023-04-25T00:23:29;3.53;;;3.23;;
3309;SDS011;1667;53.238;10.394;2023-04-25T00:28:29;4.70;;;3.20;;
3309;SDS011;1667;53.238;10.394;2023-04-25T00:33:28;6.00;;;3.50;;
3309;SDS011;1667;53.238;10.394;2023-04-25T00:38:26;4.30;;;3.10;;
3309;SDS011;1667;53.238;10.394;2023-04-25T00:43:25;4.87;;;3.50;;
3309;SDS011;1667;53.238;10.394;2023-04-25T00:48:25;4.03;;;3.00;;
3309;SDS011;1667;53.238;10.394;2023-04-25T00:53:25;4.10;;;3.70;;
3309;SDS011;1667;53.238;10.394;2023-04-25T00:58:25;4.07;;;3.07;;
3309;SDS011;1667;53.238;10.394;2023-04-25T01:03:25;3.33;;;3.00;;
3309;SDS011;1667;53.238;10.394;2023-04-25T01:08:25;4.87;;;3.80;;
3309;SDS011;1667;53.238;10.394;2023-04-25T01:13:24;3.80;;;3.50;;
3309;SDS011;1667;53.238;10.394;2023-04-25T01:18:22;3.30;;;3.00;;
3309;SDS011;1667;53.238;10.394;2023-04-25T01:23:22;4.53;;;2.13;;
3309;SDS011;1667;53.238;10.394;2023-04-25T01:28:21;10.70;;;2.70;;
3309;SDS011;1667;53.238;10.394;2023-04-25T01:33:20;4.03;;;1.80;;
3309;SDS011;1667;53.238;10.394;2023-04-25T01:38:19;8.00;;;3.50;;
3309;SDS011;1667;53.238;10.394;2023-04-25T01:43:19;9.00;;;2.70;;
3309;SDS011;1667;53.238;10.394;2023-04-25T01:48:18;9.83;;;2.20;;
3309;SDS011;1667;53.238;10.394;2023-04-25T01:53:16;9.10;;;3.33;;
3309;SDS011;1667;53.238;10.394;2023-04-25T01:58:16;16.27;;;3.47;;
3309;SDS011;1667;53.238;10.394;2023-04-25T02:03:36;9.03;;;2.00;;
3309;SDS011;1667;53.238;10.394;2023-04-25T02:08:39;6.27;;;3.00;;
3309;SDS011;1667;53.238;10.394;2023-04-25T02:13:41;12.07;;;3.63;;
3309;SDS011;1667;53.238;10.394;2023-04-25T02:18:55;10.70;;;2.77;;
3309;SDS011;1667;53.238;10.394;2023-04-25T02:23:55;7.10;;;2.57;;
3309;SDS011;1667;53.238;10.394;2023-04-25T02:28:53;13.27;;;3.57;;
3309;SDS011;1667;53.238;10.394;2023-04-25T02:33:52;7.57;;;2.43;;
3309;SDS011;1667;53.238;10.394;2023-04-25T02:38:52;6.17;;;2.20;;
3309;SDS011;1667;53.238;10.394;2023-04-25T02:43:50;10.87;;;3.00;;
3309;SDS011;1667;53.238;10.394;2023-04-25T02:48:49;10.57;;;3.70;;
3309;SDS011;1667;53.238;10.394;2023-04-25T02:53:47;11.33;;;3.13;;
3309;SDS011;1667;53.238;10.394;2023-04-25T02:58:48;13.73;;;3.27;;
3309;SDS011;1667;53.238;10.394;2023-04-25T03:03:47;8.90;;;2.90;;
3309;SDS011;1667;53.238;10.394;2023-04-25T03:08:46;15.00;;;3.73;;
3309;SDS011;1667;53.238;10.394;2023-04-25T03:13:44;10.50;;;3.27;;
3309;SDS011;1667;53.238;10.394;2023-04-25T03:18:44;9.40;;;2.50;;
3309;SDS011;1667;53.238;10.394;2023-04-25T03:23:43;12.23;;;3.13;;
3309;SDS011;1667;53.238;10.394;2023-04-25T03:28:42;7.03;;;3.33;;
3309;SDS011;1667;53.238;10.394;2023-04-25T03:33:41;7.40;;;2.30;;
3309;SDS011;1667;53.238;10.394;2023-04-25T03:38:41;10.03;;;3.27;;
3309;SDS011;1667;53.238;10.394;2023-04-25T03:43:43;11.90;;;2.70;;
3309;SDS011;1667;53.238;10.394;2023-04-25T03:48:43;10.80;;;2.80;;
3309;SDS011;1667;53.238;10.394;2023-04-25T03:53:49;7.53;;;2.67;;
3309;SDS011;1667;53.238;10.394;2023-04-25T03:58:48;12.63;;;3.10;;
3309;SDS011;1667;53.238;10.394;2023-04-25T04:03:49;16.63;;;3.40;;
3309;SDS011;1667;53.238;10.394;2023-04-25T04:08:50;8.20;;;3.20;;
3309;SDS011;1667;53.238;10.394;2023-04-25T04:13:48;11.40;;;3.27;;
3309;SDS011;1667;53.238;10.394;2023-04-25T04:18:47;9.60;;;3.10;;
3309;SDS011;1667;53.238;10.394;2023-04-25T04:23:46;8.53;;;3.10;;
3309;SDS011;1667;53.238;10.394;2023-04-25T04:28:47;10.20;;;3.10;;
3309;SDS011;1667;53.238;10.394;2023-04-25T04:34:00;10.50;;;3.80;;
3309;SDS011;1667;53.238;10.394;2023-04-25T04:38:59;8.73;;;3.10;;
3309;SDS011;1667;53.238;10.394;2023-04-25T04:44:07;13.97;;;4.33;;
3309;SDS011;1667;53.238;10.394;2023-04-25T04:49:20;6.17;;;2.07;;
3309;SDS011;1667;53.238;10.394;2023-04-25T04:54:48;12.87;;;3.40;;
3309;SDS011;1667;53.238;10.394;2023-04-25T04:59:59;13.10;;;2.70;;
3309;SDS011;1667;53.238;10.394;2023-04-25T05:05:25;24.67;;;5.20;;
3309;SDS011;1667;53.238;10.394;2023-04-25T05:10:39;11.60;;;3.00;;
3309;SDS011;1667;53.238;10.394;2023-04-25T05:15:56;17.67;;;4.40;;
3309;SDS011;1667;53.238;10.394;2023-04-25T05:21:13;6.87;;;2.80;;
3309;SDS011;1667;53.238;10.394;2023-04-25T05:26:34;15.63;;;3.43;;
3309;SDS011;1667;53.238;10.394;2023-04-25T05:31:52;9.20;;;3.00;;
3309;SDS011;1667;53.238;10.394;2023-04-25T05:36:51;10.83;;;3.37;;
3309;SDS011;1667;53.238;10.394;2023-04-25T05:41:49;9.47;;;3.00;;
3309;SDS011;1667;53.238;10.394;2023-04-25T05:47:12;8.43;;;2.50;;
3309;SDS011;1667;53.238;10.394;2023-04-25T05:52:26;10.73;;;3.00;;
3309;SDS011;1667;53.238;10.394;2023-04-25T05:57:47;12.50;;;2.77;;
3309;SDS011;1667;53.238;10.394;2023-04-25T06:02:48;8.63;;;2.30;;
3309;SDS011;1667;53.238;10.394;2023-04-25T06:07:48;8.87;;;3.43;;
3309;SDS011;1667;53.238;10.394;2023-04-25T06:12:46;7.93;;;2.43;;
3309;SDS011;1667;53.238;10.394;2023-04-25T06:17:46;13.40;;;3.20;;
3309;SDS011;1667;53.238;10.394;2023-04-25T06:22:46;7.27;;;2.23;;
3309;SDS011;1667;53.238;10.394;2023-04-25T06:27:45;9.07;;;2.67;;
3309;SDS011;1667;53.238;10.394;2023-04-25T06:32:43;7.60;;;2.07;;
3309;SDS011;1667;53.238;10.394;2023-04-25T06:37:44;7.47;;;2.00;;
3309;SDS011;1667;53.238;10.394;2023-04-25T06:42:42;9.00;;;2.07;;
3309;SDS011;1667;53.238;10.394;2023-04-25T06:47:59;12.67;;;2.57;;
3309;SDS011;1667;53.238;10.394;2023-04-25T06:52:59;5.57;;;1.80;;
3309;SDS011;1667;53.238;10.394;2023-04-25T06:57:59;5.20;;;2.10;;
3309;SDS011;1667;53.238;10.394;2023-04-25T07:03:22;17.13;;;3.63;;
3309;SDS011;1667;53.238;10.394;2023-04-25T07:08:28;8.87;;;2.90;;
3309;SDS011;1667;53.238;10.394;2023-04-25T07:13:27;11.07;;;3.23;;
3309;SDS011;1667;53.238;10.394;2023-04-25T07:25:16;8.43;;;2.13;;
3309;SDS011;1667;53.238;10.394;2023-04-25T07:30:16;11.57;;;2.30;;
3309;SDS011;1667;53.238;10.394;2023-04-25T07:35:15;8.47;;;3.90;;
3309;SDS011;1667;53.238;10.394;2023-04-25T07:40:13;5.60;;;2.00;;
3309;SDS011;1667;53.238;10.394;2023-04-25T07:45:18;8.07;;;2.67;;
3309;SDS011;1667;53.238;10.394;2023-04-25T07:50:17;5.77;;;1.27;;
3309;SDS011;1667;53.238;10.394;2023-04-25T07:55:32;3.80;;;1.67;;
3309;SDS011;1667;53.238;10.394;2023-04-25T08:00:37;8.03;;;2.70;;
3309;SDS011;1667;53.238;10.394;2023-04-25T08:11:46;7.90;;;2.10;;
3309;SDS011;1667;53.238;10.394;2023-04-25T08:16:48;8.87;;;1.70;;
3309;SDS011;1667;53.238;10.394;2023-04-25T08:21:48;1.93;;;1.37;;
3309;SDS011;1667;53.238;10.394;2023-04-25T08:26:54;5.10;;;1.93;;
3309;SDS011;1667;53.238;10.394;2023-04-25T08:31:56;4.43;;;1.70;;
3309;SDS011;1667;53.238;10.394;2023-04-25T08:36:55;4.83;;;1.33;;
3309;SDS011;1667;53.238;10.394;2023-04-25T08:42:16;5.57;;;1.50;;
3309;SDS011;1667;53.238;10.394;2023-04-25T08:47:17;4.10;;;1.80;;
3309;SDS011;1667;53.238;10.394;2023-04-25T08:52:24;5.27;;;1.10;;
3309;SDS011;1667;53.238;10.394;2023-04-25T08:57:27;3.23;;;1.47;;
3309;SDS011;1667;53.238;10.394;2023-04-25T09:02:30;4.17;;;2.00;;
3309;SDS011;1667;53.238;10.394;2023-04-25T09:07:31;3.30;;;0.93;;
3309;SDS011;1667;53.238;10.394;2023-04-25T09:12:29;9.70;;;2.10;;
3309;SDS011;1667;53.238;10.394;2023-04-25T09:17:29;9.23;;;1.70;;
3309;SDS011;1667;53.238;10.394;2023-04-25T09:22:28;5.87;;;1.80;;
3309;SDS011;1667;53.238;10.394;2023-04-25T09:27:27;2.10;;;1.30;;
3309;SDS011;1667;53.238;10.394;2023-04-25T09:32:41;4.33;;;1.83;;
3309;SDS011;1667;53.238;10.394;2023-04-25T09:37:41;1.73;;;0.67;;
3309;SDS011;1667;53.238;10.394;2023-04-25T09:43:00;4.50;;;1.00;;
3309;SDS011;1667;53.238;10.394;2023-04-25T09:48:04;2.40;;;0.93;;
3309;SDS011;1667;53.238;10.394;2023-04-25T09:53:12;6.27;;;1.00;;
3309;SDS011;1667;53.238;10.394;2023-04-25T09:58:33;4.57;;;1.20;;
3309;SDS011;1667;53.238;10.394;2023-04-25T10:03:34;4.63;;;1.20;;
3309;SDS011;1667;53.238;10.394;2023-04-25T10:09:05;6.40;;;1.50;;
3309;SDS011;1667;53.238;10.394;2023-04-25T10:14:06;21.23;;;1.93;;
3309;SDS011;1667;53.238;10.394;2023-04-25T10:19:06;2.53;;;0.90;;
3309;SDS011;1667;53.238;10.394;2023-04-25T10:24:05;1.67;;;0.80;;
3309;SDS011;1667;53.238;10.394;2023-04-25T10:29:04;3.13;;;0.93;;
3309;SDS011;1667;53.238;10.394;2023-04-25T10:34:03;2.87;;;1.00;;
3309;SDS011;1667;53.238;10.394;2023-04-25T10:39:04;3.33;;;1.27;;
3309;SDS011;1667;53.238;10.394;2023-04-25T10:44:05;3.43;;;1.10;;
3309;SDS011;1667;53.238;10.394;2023-04-25T10:49:04;2.30;;;1.00;;
3309;SDS011;1667;53.238;10.394;2023-04-25T10:59:55;1.87;;;1.20;;
3309;SDS011;1667;53.238;10.394;2023-04-25T11:04:56;4.17;;;1.30;;
3309;SDS011;1667;53.238;10.394;2023-04-25T11:09:55;3.60;;;1.20;;
3309;SDS011;1667;53.238;10.394;2023-04-25T11:14:59;5.07;;;1.40;;
3309;SDS011;1667;53.238;10.394;2023-04-25T11:20:00;1.67;;;0.73;;
3309;SDS011;1667;53.238;10.394;2023-04-25T11:25:06;2.90;;;1.30;;
3309;SDS011;1667;53.238;10.394;2023-04-25T11:30:14;1.57;;;0.90;;
3309;SDS011;1667;53.238;10.394;2023-04-25T11:35:13;4.90;;;1.50;;
3309;SDS011;1667;53.238;10.394;2023-04-25T11:40:26;2.97;;;1.10;;
3309;SDS011;1667;53.238;10.394;2023-04-25T11:45:26;3.40;;;1.00;;
3309;SDS011;1667;53.238;10.394;2023-04-25T11:50:25;2.57;;;1.03;;
3309;SDS011;1667;53.238;10.394;2023-04-25T11:55:26;5.37;;;1.50;;
3309;SDS011;1667;53.238;10.394;2023-04-25T12:00:30;3.13;;;0.90;;
3309;SDS011;1667;53.238;10.394;2023-04-25T12:05:29;3.73;;;1.40;;
3309;SDS011;1667;53.238;10.394;2023-04-25T12:10:30;4.07;;;1.20;;
3309;SDS011;1667;53.238;10.394;2023-04-25T12:15:30;3.27;;;1.17;;
3309;SDS011;1667;53.238;10.394;2023-04-25T12:20:31;5.17;;;1.03;;
3309;SDS011;1667;53.238;10.394;2023-04-25T12:25:33;0.80;;;0.80;;
3309;SDS011;1667;53.238;10.394;2023-04-25T12:30:50;3.17;;;1.10;;
3309;SDS011;1667;53.238;10.394;2023-04-25T12:35:50;2.70;;;0.80;;
3309;SDS011;1667;53.238;10.394;2023-04-25T12:40:48;0.90;;;0.80;;
3309;SDS011;1667;53.238;10.394;2023-04-25T12:45:49;2.50;;;1.20;;
3309;SDS011;1667;53.238;10.394;2023-04-25T12:50:48;1.53;;;1.10;;
3309;SDS011;1667;53.238;10.394;2023-04-25T12:55:48;2.43;;;1.00;;
3309;SDS011;1667;53.238;10.394;2023-04-25T13:00:48;2.57;;;1.33;;
3309;SDS011;1667;53.238;10.394;2023-04-25T13:05:47;3.00;;;1.20;;
3309;SDS011;1667;53.238;10.394;2023-04-25T13:10:47;4.93;;;1.10;;
3309;SDS011;1667;53.238;10.394;2023-04-25T13:15:45;3.90;;;1.30;;
3309;SDS011;1667;53.238;10.394;2023-04-25T13:20:45;3.33;;;1.30;;
3309;SDS011;1667;53.238;10.394;2023-04-25T13:25:43;5.90;;;1.57;;
3309;SDS011;1667;53.238;10.394;2023-04-25T13:30:42;4.30;;;1.30;;
3309;SDS011;1667;53.238;10.394;2023-04-25T13:35:42;3.43;;;0.83;;
3309;SDS011;1667;53.238;10.394;2023-04-25T13:40:44;0.70;;;0.70;;
3309;SDS011;1667;53.238;10.394;2023-04-25T13:45:43;3.63;;;1.10;;
3309;SDS011;1667;53.238;10.394;2023-04-25T13:50:41;2.70;;;1.00;;
3309;SDS011;1667;53.238;10.394;2023-04-25T13:55:40;2.90;;;1.00;;
3309;SDS011;1667;53.238;10.394;2023-04-25T14:00:40;2.50;;;1.20;;
3309;SDS011;1667;53.238;10.394;2023-04-25T14:05:40;7.23;;;1.40;;
3309;SDS011;1667;53.238;10.394;2023-04-25T14:10:38;4.77;;;1.30;;
3309;SDS011;1667;53.238;10.394;2023-04-25T14:15:37;1.00;;;0.80;;
3309;SDS011;1667;53.238;10.394;2023-04-25T14:20:37;4.90;;;1.30;;
3309;SDS011;1667;53.238;10.394;2023-04-25T14:25:36;6.00;;;2.27;;
3309;SDS011;1667;53.238;10.394;2023-04-25T14:30:34;4.30;;;1.77;;
3309;SDS011;1667;53.238;10.394;2023-04-25T14:35:33;5.03;;;1.63;;
3309;SDS011;1667;53.238;10.394;2023-04-25T14:40:33;3.40;;;1.13;;
3309;SDS011;1667;53.238;10.394;2023-04-25T14:45:33;7.47;;;1.50;;
3309;SDS011;1667;53.238;10.394;2023-04-25T14:50:31;7.43;;;1.50;;
3309;SDS011;1667;53.238;10.394;2023-04-25T14:55:30;4.17;;;1.47;;
3309;SDS011;1667;53.238;10.394;2023-04-25T15:00:30;3.33;;;1.40;;
3309;SDS011;1667;53.238;10.394;2023-04-25T15:05:29;2.80;;;1.27;;
3309;SDS011;1667;53.238;10.394;2023-04-25T15:10:28;12.17;;;1.80;;
3309;SDS011;1667;53.238;10.394;2023-04-25T15:15:27;3.27;;;1.53;;
3309;SDS011;1667;53.238;10.394;2023-04-25T15:20:26;4.63;;;1.17;;
3309;SDS011;1667;53.238;10.394;2023-04-25T15:25:25;2.40;;;0.90;;
3309;SDS011;1667;53.238;10.394;2023-04-25T15:30:25;1.70;;;1.20;;
3309;SDS011;1667;53.238;10.394;2023-04-25T15:35:23;5.47;;;1.10;;
3309;SDS011;1667;53.238;10.394;2023-04-25T15:40:23;2.67;;;1.43;;
3309;SDS011;1667;53.238;10.394;2023-04-25T15:45:22;7.20;;;1.77;;
3309;SDS011;1667;53.238;10.394;2023-04-25T15:50:22;4.90;;;1.90;;
3309;SDS011;1667;53.238;10.394;2023-04-25T15:55:21;5.13;;;1.80;;
3309;SDS011;1667;53.238;10.394;2023-04-25T16:00:22;4.63;;;1.60;;
3309;SDS011;1667;53.238;10.394;2023-04-25T16:05:21;3.53;;;1.27;;
3309;SDS011;1667;53.238;10.394;2023-04-25T16:10:20;3.67;;;1.07;;
3309;SDS011;1667;53.238;10.394;2023-04-25T16:15:19;6.30;;;1.67;;
3309;SDS011;1667;53.238;10.394;2023-04-25T16:20:18;8.60;;;1.80;;
3309;SDS011;1667;53.238;10.394;2023-04-25T16:25:16;9.80;;;1.83;;
3309;SDS011;1667;53.238;10.394;2023-04-25T16:30:15;3.70;;;1.70;;
3309;SDS011;1667;53.238;10.394;2023-04-25T16:35:14;5.67;;;1.57;;
3309;SDS011;1667;53.238;10.394;2023-04-25T16:40:13;3.53;;;1.43;;
3309;SDS011;1667;53.238;10.394;2023-04-25T16:45:12;2.17;;;1.30;;
3309;SDS011;1667;53.238;10.394;2023-04-25T16:50:14;2.23;;;1.73;;
3309;SDS011;1667;53.238;10.394;2023-04-25T16:55:13;2.90;;;1.30;;
3309;SDS011;1667;53.238;10.394;2023-04-25T17:00:12;4.57;;;1.60;;
3309;SDS011;1667;53.238;10.394;2023-04-25T17:05:12;3.70;;;1.10;;
3309;SDS011;1667;53.238;10.394;2023-04-25T17:10:12;1.37;;;1.00;;
3309;SDS011;1667;53.238;10.394;2023-04-25T17:15:10;4.33;;;1.10;;
3309;SDS011;1667;53.238;10.394;2023-04-25T17:20:09;1.83;;;1.30;;
3309;SDS011;1667;53.238;10.394;2023-04-25T17:25:09;2.77;;;1.10;;
3309;SDS011;1667;53.238;10.394;2023-04-25T17:30:09;3.23;;;0.83;;
3309;SDS011;1667;53.238;10.394;2023-04-25T17:35:08;3.40;;;1.80;;
3309;SDS011;1667;53.238;10.394;2023-04-25T17:40:07;2.33;;;1.00;;
3309;SDS011;1667;53.238;10.394;2023-04-25T17:45:09;4.77;;;1.53;;
3309;SDS011;1667;53.238;10.394;2023-04-25T17:50:08;4.03;;;1.50;;
3309;SDS011;1667;53.238;10.394;2023-04-25T17:55:08;3.00;;;1.13;;
3309;SDS011;1667;53.238;10.394;2023-04-25T18:00:07;2.10;;;1.27;;
3309;SDS011;1667;53.238;10.394;2023-04-25T18:05:11;2.93;;;1.50;;
3309;SDS011;1667;53.238;10.394;2023-04-25T18:10:11;1.30;;;0.90;;
3309;SDS011;1667;53.238;10.394;2023-04-25T18:15:13;5.53;;;1.40;;
3309;SDS011;1667;53.238;10.394;2023-04-25T18:20:12;2.87;;;1.27;;
3309;SDS011;1667;53.238;10.394;2023-04-25T18:25:12;2.17;;;0.80;;
3309;SDS011;1667;53.238;10.394;2023-04-25T18:30:13;6.43;;;2.20;;
3309;SDS011;1667;53.238;10.394;2023-04-25T18:35:11;1.73;;;1.43;;
3309;SDS011;1667;53.238;10.394;2023-04-25T18:40:10;2.10;;;1.87;;
3309;SDS011;1667;53.238;10.394;2023-04-25T18:45:09;6.03;;;1.20;;
3309;SDS011;1667;53.238;10.394;2023-04-25T18:50:10;5.13;;;1.50;;
3309;SDS011;1667;53.238;10.394;2023-04-25T18:55:08;3.27;;;1.63;;
3309;SDS011;1667;53.238;10.394;2023-04-25T19:00:07;5.73;;;1.13;;
3309;SDS011;1667;53.238;10.394;2023-04-25T19:05:07;2.43;;;1.47;;
3309;SDS011;1667;53.238;10.394;2023-04-25T19:10:07;1.50;;;1.20;;
3309;SDS011;1667;53.238;10.394;2023-04-25T19:15:07;6.03;;;2.23;;
3309;SDS011;1667;53.238;10.394;2023-04-25T19:20:07;3.40;;;1.43;;
3309;SDS011;1667;53.238;10.394;2023-04-25T19:25:08;5.90;;;1.30;;
3309;SDS011;1667;53.238;10.394;2023-04-25T19:30:07;3.13;;;1.50;;
3309;SDS011;1667;53.238;10.394;2023-04-25T19:35:07;6.43;;;1.73;;
3309;SDS011;1667;53.238;10.394;2023-04-25T19:40:09;5.33;;;2.07;;
3309;SDS011;1667;53.238;10.394;2023-04-25T19:45:09;4.63;;;1.40;;
3309;SDS011;1667;53.238;10.394;2023-04-25T19:50:08;9.37;;;1.57;;
3309;SDS011;1667;53.238;10.394;2023-04-25T19:55:09;4.33;;;1.40;;
3309;SDS011;1667;53.238;10.394;2023-04-25T20:00:12;2.57;;;0.80;;
3309;SDS011;1667;53.238;10.394;2023-04-25T20:05:15;5.70;;;1.27;;
3309;SDS011;1667;53.238;10.394;2023-04-25T20:10:15;5.13;;;1.10;;
3309;SDS011;1667;53.238;10.394;2023-04-25T20:15:15;2.23;;;0.93;;
3309;SDS011;1667;53.238;10.394;2023-04-25T20:20:14;3.23;;;2.00;;
3309;SDS011;1667;53.238;10.394;2023-04-25T20:25:15;2.40;;;1.10;;
3309;SDS011;1667;53.238;10.394;2023-04-25T20:30:32;5.10;;;1.63;;
3309;SDS011;1667;53.238;10.394;2023-04-25T20:35:31;5.80;;;1.57;;
3309;SDS011;1667;53.238;10.394;2023-04-25T20:40:31;4.20;;;1.30;;
3309;SDS011;1667;53.238;10.394;2023-04-25T20:45:29;2.77;;;1.10;;
3309;SDS011;1667;53.238;10.394;2023-04-25T20:50:30;2.60;;;1.07;;
3309;SDS011;1667;53.238;10.394;2023-04-25T20:55:30;2.43;;;1.20;;
3309;SDS011;1667;53.238;10.394;2023-04-25T21:00:29;5.80;;;1.40;;
3309;SDS011;1667;53.238;10.394;2023-04-25T21:05:27;2.73;;;0.93;;
3309;SDS011;1667;53.238;10.394;2023-04-25T21:10:26;1.47;;;1.00;;
3309;SDS011;1667;53.238;10.394;2023-04-25T21:15:26;2.50;;;0.90;;
3309;SDS011;1667;53.238;10.394;2023-04-25T21:20:25;3.73;;;1.30;;
3309;SDS011;1667;53.238;10.394;2023-04-25T21:25:24;4.53;;;1.10;;
3309;SDS011;1667;53.238;10.394;2023-04-25T21:30:28;2.73;;;0.97;;
3309;SDS011;1667;53.238;10.394;2023-04-25T21:35:28;3.27;;;1.10;;
3309;SDS011;1667;53.238;10.394;2023-04-25T21:40:26;11.67;;;1.37;;
3309;SDS011;1667;53.238;10.394;2023-04-25T21:45:25;8.47;;;1.90;;
3309;SDS011;1667;53.238;10.394;2023-04-25T21:50:26;5.97;;;1.80;;
3309;SDS011;1667;53.238;10.394;2023-04-25T21:55:25;2.73;;;1.27;;
3309;SDS011;1667;53.238;10.394;2023-04-25T22:00:24;3.90;;;1.30;;
3309;SDS011;1667;53.238;10.394;2023-04-25T22:05:23;6.50;;;1.40;;
3309;SDS011;1667;53.238;10.394;2023-04-25T22:10:24;1.53;;;1.27;;
3309;SDS011;1667;53.238;10.394;2023-04-25T22:15:23;2.50;;;1.33;;
3309;SDS011;1667;53.238;10.394;2023-04-25T22:20:22;0.70;;;0.70;;
3309;SDS011;1667;53.238;10.394;2023-04-25T22:25:23;5.17;;;1.20;;
3309;SDS011;1667;53.238;10.394;2023-04-25T22:30:22;5.00;;;1.07;;
3309;SDS011;1667;53.238;10.394;2023-04-25T22:35:21;5.97;;;1.70;;
3309;SDS011;1667;53.238;10.394;2023-04-25T22:40:19;2.00;;;0.90;;
3309;SDS011;1667;53.238;10.394;2023-04-25T22:45:19;1.17;;;0.97;;
3309;SDS011;1667;53.238;10.394;2023-04-25T22:50:17;5.20;;;1.70;;
3309;SDS011;1667;53.238;10.394;2023-04-25T22:55:16;1.33;;;0.97;;
3309;SDS011;1667;53.238;10.394;2023-04-25T23:00:15;2.93;;;1.30;;
3309;SDS011;1667;53.238;10.394;2023-04-25T23:05:17;1.60;;;1.20;;
3309;SDS011;1667;53.238;10.394;2023-04-25T23:10:15;4.50;;;1.43;;
3309;SDS011;1667;53.238;10.394;2023-04-25T23:15:14;4.57;;;1.60;;
3309;SDS011;1667;53.238;10.394;2023-04-25T23:20:13;4.40;;;1.30;;
3309;SDS011;1667;53.238;10.394;2023-04-25T23:25:13;9.77;;;1.93;;
3309;SDS011;1667;53.238;10.394;2023-04-25T23:30:13;3.97;;;1.80;;
3309;SDS011;1667;53.238;10.394;2023-04-25T23:35:12;2.90;;;1.40;;
3309;SDS011;1667;53.238;10.394;2023-04-25T23:40:10;5.13;;;1.37;;
3309;SDS011;1667;53.238;10.394;2023-04-25T23:45:10;6.43;;;1.57;;
3309;SDS011;1667;53.238;10.394;2023-04-25T23:50:11;2.40;;;1.60;;
3309;SDS011;1667;53.238;10.394;2023-04-25T23:55:10;6.33;;;1.73;;
